Holualoa, Hawaii
Current Conditions -  °F | °C
As of 3:53 AM on Thursday 18 Dec 2014 (Local Time) from PHKO Reporting Station
Clear Clear  
Wind Chill: 71°   Ceiling: Unl
Heat Index: 71°   Visibility: NA
Dew Point: 61°   Wind: 6mph
Humidity: 70%   Direction: 100°E
Pressure: 30.07"   Gusts: NA
Location:  19.61°N, 155.94°W
Report Text: PHKO 181353Z AUTO 10005KT CLR 22/16 A3007 RMK AO2 SLP184 T02170161 TSNO $
Loading
Personal Weather Stations






























Interactive Weather Map New forecast layout! Learn more

10-Day Weather Forecast

Advertisements
Track Severe Weather on mobile